sensor_id;sensor_type;location;lat;lon;timestamp;pressure;altitude;pressure_sealevel;temperature;humidity
7832;BME280;3961;42.058;25.586;2023-02-04T00:00:48;62569.84;;;3.20;76.98
7832;BME280;3961;42.058;25.586;2023-02-04T00:03:15;62562.09;;;3.16;74.23
7832;BME280;3961;42.058;25.586;2023-02-04T00:05:41;62581.63;;;3.28;73.97
7832;BME280;3961;42.058;25.586;2023-02-04T00:08:07;62598.16;;;3.48;73.87
7832;BME280;3961;42.058;25.586;2023-02-04T00:10:33;62578.91;;;3.33;74.19
7832;BME280;3961;42.058;25.586;2023-02-04T00:12:59;62577.19;;;3.31;74.15
7832;BME280;3961;42.058;25.586;2023-02-04T00:15:24;62597.00;;;3.47;73.64
7832;BME280;3961;42.058;25.586;2023-02-04T00:17:50;62604.47;;;3.53;74.80
7832;BME280;3961;42.058;25.586;2023-02-04T00:20:16;62605.03;;;3.54;74.04
7832;BME280;3961;42.058;25.586;2023-02-04T00:22:42;62600.19;;;3.47;74.82
7832;BME280;3961;42.058;25.586;2023-02-04T00:25:08;62602.75;;;3.52;73.92
7832;BME280;3961;42.058;25.586;2023-02-04T00:27:33;62607.97;;;3.52;74.80
7832;BME280;3961;42.058;25.586;2023-02-04T00:29:59;62612.91;;;3.54;76.20
7832;BME280;3961;42.058;25.586;2023-02-04T00:32:24;62620.25;;;3.65;75.45
7832;BME280;3961;42.058;25.586;2023-02-04T00:34:50;62632.28;;;3.76;74.63
7832;BME280;3961;42.058;25.586;2023-02-04T00:37:17;62631.94;;;3.78;74.67
7832;BME280;3961;42.058;25.586;2023-02-04T00:39:43;62616.22;;;3.61;73.98
7832;BME280;3961;42.058;25.586;2023-02-04T00:42:09;62632.84;;;3.76;75.02
7832;BME280;3961;42.058;25.586;2023-02-04T00:44:34;62623.69;;;3.68;77.16
7832;BME280;3961;42.058;25.586;2023-02-04T00:47:01;62621.38;;;3.66;76.63
7832;BME280;3961;42.058;25.586;2023-02-04T00:49:26;62634.31;;;3.75;78.56
7832;BME280;3961;42.058;25.586;2023-02-04T00:51:52;62594.81;;;3.40;79.64
7832;BME280;3961;42.058;25.586;2023-02-04T00:54:17;62604.53;;;3.49;80.34
7832;BME280;3961;42.058;25.586;2023-02-04T00:56:43;62600.44;;;3.50;79.18
7832;BME280;3961;42.058;25.586;2023-02-04T00:59:09;62583.00;;;3.32;80.36
7832;BME280;3961;42.058;25.586;2023-02-04T01:01:35;62590.13;;;3.41;80.29
7832;BME280;3961;42.058;25.586;2023-02-04T01:04:00;62590.47;;;3.38;82.83
7832;BME280;3961;42.058;25.586;2023-02-04T01:06:26;62580.72;;;3.30;81.00
7832;BME280;3961;42.058;25.586;2023-02-04T01:08:51;62581.06;;;3.28;80.68
7832;BME280;3961;42.058;25.586;2023-02-04T01:11:17;62577.53;;;3.29;80.42
7832;BME280;3961;42.058;25.586;2023-02-04T01:13:43;62596.19;;;3.44;79.20
7832;BME280;3961;42.058;25.586;2023-02-04T01:16:08;62568.38;;;3.21;79.47
7832;BME280;3961;42.058;25.586;2023-02-04T01:18:34;62581.06;;;3.28;79.27
7832;BME280;3961;42.058;25.586;2023-02-04T01:21:00;62585.63;;;3.32;78.08
7832;BME280;3961;42.058;25.586;2023-02-04T01:23:26;62586.78;;;3.33;78.70
7832;BME280;3961;42.058;25.586;2023-02-04T01:25:51;62579.00;;;3.28;77.03
7832;BME280;3961;42.058;25.586;2023-02-04T01:28:17;62582.44;;;3.31;77.49
7832;BME280;3961;42.058;25.586;2023-02-04T01:30:42;62607.16;;;3.49;76.50
7832;BME280;3961;42.058;25.586;2023-02-04T01:33:08;62593.56;;;3.44;76.01
7832;BME280;3961;42.058;25.586;2023-02-04T01:35:33;62618.59;;;3.59;75.34
7832;BME280;3961;42.058;25.586;2023-02-04T01:37:59;62611.09;;;3.57;77.26
7832;BME280;3961;42.058;25.586;2023-02-04T01:40:24;62602.25;;;3.47;77.68
7832;BME280;3961;42.058;25.586;2023-02-04T01:42:50;62609.69;;;3.53;78.42
7832;BME280;3961;42.058;25.586;2023-02-04T01:45:16;62601.59;;;3.51;77.69
7832;BME280;3961;42.058;25.586;2023-02-04T01:47:43;62619.66;;;3.64;77.31
7832;BME280;3961;42.058;25.586;2023-02-04T01:50:11;62567.25;;;3.20;77.39
7832;BME280;3961;42.058;25.586;2023-02-04T01:52:38;62587.03;;;3.35;79.50
7832;BME280;3961;42.058;25.586;2023-02-04T01:55:11;62567.97;;;3.12;79.92
7832;BME280;3961;42.058;25.586;2023-02-04T01:57:38;62582.44;;;3.31;82.10
7832;BME280;3961;42.058;25.586;2023-02-04T02:00:08;62570.69;;;3.23;85.31
7832;BME280;3961;42.058;25.586;2023-02-04T02:02:42;62597.34;;;3.45;83.81
7832;BME280;3961;42.058;25.586;2023-02-04T02:05:10;62577.63;;;3.25;83.15
7832;BME280;3961;42.058;25.586;2023-02-04T02:07:37;62586.13;;;3.37;83.38
7832;BME280;3961;42.058;25.586;2023-02-04T02:10:05;62575.22;;;3.27;82.49
7832;BME280;3961;42.058;25.586;2023-02-04T02:12:31;62573.28;;;3.23;83.13
7832;BME280;3961;42.058;25.586;2023-02-04T02:14:57;62580.16;;;3.29;83.23
7832;BME280;3961;42.058;25.586;2023-02-04T02:17:23;62607.41;;;3.51;80.08
7832;BME280;3961;42.058;25.586;2023-02-04T02:19:49;62602.75;;;3.52;80.47
7832;BME280;3961;42.058;25.586;2023-02-04T02:22:28;62610.59;;;3.52;81.16
7832;BME280;3961;42.058;25.586;2023-02-04T02:24:54;62599.06;;;3.46;80.23
7832;BME280;3961;42.058;25.586;2023-02-04T02:27:20;62603.97;;;3.48;80.00
7832;BME280;3961;42.058;25.586;2023-02-04T02:29:46;62619.09;;;3.64;79.69
7832;BME280;3961;42.058;25.586;2023-02-04T02:32:13;62604.47;;;3.53;78.71
7832;BME280;3961;42.058;25.586;2023-02-04T02:34:40;62613.22;;;3.52;78.96
7832;BME280;3961;42.058;25.586;2023-02-04T02:37:06;62615.09;;;3.60;78.70
7832;BME280;3961;42.058;25.586;2023-02-04T02:39:39;62604.22;;;3.51;79.60
7832;BME280;3961;42.058;25.586;2023-02-04T02:42:08;62637.19;;;3.78;78.03
7832;BME280;3961;42.058;25.586;2023-02-04T02:44:34;62645.47;;;3.87;78.66
7832;BME280;3961;42.058;25.586;2023-02-04T02:47:00;62633.44;;;3.77;79.11
7832;BME280;3961;42.058;25.586;2023-02-04T02:49:27;62624.59;;;3.66;77.77
7832;BME280;3961;42.058;25.586;2023-02-04T02:51:53;62646.63;;;3.88;77.95
7832;BME280;3961;42.058;25.586;2023-02-04T02:54:23;62644.91;;;3.87;77.65
7832;BME280;3961;42.058;25.586;2023-02-04T02:56:49;62655.44;;;3.98;78.25
7832;BME280;3961;42.058;25.586;2023-02-04T02:59:16;62681.31;;;4.17;77.62
7832;BME280;3961;42.058;25.586;2023-02-04T03:01:43;62695.06;;;4.29;75.59
7832;BME280;3961;42.058;25.586;2023-02-04T03:04:09;62672.16;;;4.09;76.26
7832;BME280;3961;42.058;25.586;2023-02-04T03:06:36;62695.06;;;4.29;75.98
7832;BME280;3961;42.058;25.586;2023-02-04T03:09:02;62694.75;;;4.31;76.60
7832;BME280;3961;42.058;25.586;2023-02-04T03:11:27;62678.38;;;4.19;78.31
7832;BME280;3961;42.058;25.586;2023-02-04T03:13:58;62670.44;;;4.07;79.08
7832;BME280;3961;42.058;25.586;2023-02-04T03:16:29;62683.06;;;4.18;77.04
7832;BME280;3961;42.058;25.586;2023-02-04T03:18:58;62713.09;;;4.47;76.53
7832;BME280;3961;42.058;25.586;2023-02-04T03:21:24;62680.19;;;4.16;77.96
7832;BME280;3961;42.058;25.586;2023-02-04T03:23:49;62682.16;;;4.20;79.29
7832;BME280;3961;42.058;25.586;2023-02-04T03:26:16;62699.09;;;4.32;77.37
7832;BME280;3961;42.058;25.586;2023-02-04T03:28:42;62699.34;;;4.35;77.86
7832;BME280;3961;42.058;25.586;2023-02-04T03:31:08;62706.22;;;4.41;79.63
7832;BME280;3961;42.058;25.586;2023-02-04T03:33:33;62723.06;;;4.58;81.85
7832;BME280;3961;42.058;25.586;2023-02-04T03:36:00;62734.66;;;4.64;83.45
7832;BME280;3961;42.058;25.586;2023-02-04T03:38:26;62738.31;;;4.69;83.85
7832;BME280;3961;42.058;25.586;2023-02-04T03:40:52;62743.25;;;4.71;83.78
7832;BME280;3961;42.058;25.586;2023-02-04T03:43:17;62774.47;;;5.01;83.37
7832;BME280;3961;42.058;25.586;2023-02-04T03:45:43;62773.00;;;5.02;84.87
7832;BME280;3961;42.058;25.586;2023-02-04T03:48:09;62777.66;;;5.02;85.21
7832;BME280;3961;42.058;25.586;2023-02-04T03:50:35;62768.97;;;4.99;84.11
7832;BME280;3961;42.058;25.586;2023-02-04T03:53:00;62787.59;;;5.18;83.91
7832;BME280;3961;42.058;25.586;2023-02-04T03:55:26;62788.25;;;5.14;85.12
7832;BME280;3961;42.058;25.586;2023-02-04T03:57:52;62778.72;;;5.07;84.31
7832;BME280;3961;42.058;25.586;2023-02-04T04:00:18;62759.53;;;4.88;85.93
7832;BME280;3961;42.058;25.586;2023-02-04T04:02:44;62764.13;;;4.92;85.95
7832;BME280;3961;42.058;25.586;2023-02-04T04:05:10;62783.66;;;5.10;85.32
7832;BME280;3961;42.058;25.586;2023-02-04T04:07:36;62774.22;;;4.99;84.79
7832;BME280;3961;42.058;25.586;2023-02-04T04:10:02;62755.22;;;4.87;84.73
7832;BME280;3961;42.058;25.586;2023-02-04T04:12:27;62725.38;;;4.60;85.40
7832;BME280;3961;42.058;25.586;2023-02-04T04:14:53;62740.06;;;4.71;86.24
7832;BME280;3961;42.058;25.586;2023-02-04T04:17:18;62737.19;;;4.68;85.97
7832;BME280;3961;42.058;25.586;2023-02-04T04:19:44;62728.34;;;4.58;85.77
7832;BME280;3961;42.058;25.586;2023-02-04T04:22:10;62714.81;;;4.49;85.95
7832;BME280;3961;42.058;25.586;2023-02-04T04:24:35;62724.34;;;4.55;86.13
7832;BME280;3961;42.058;25.586;2023-02-04T04:27:01;62709.66;;;4.44;86.11
7832;BME280;3961;42.058;25.586;2023-02-04T04:29:26;62705.88;;;4.43;87.37
7832;BME280;3961;42.058;25.586;2023-02-04T04:31:52;62714.00;;;4.46;87.10
7832;BME280;3961;42.058;25.586;2023-02-04T04:34:17;62707.38;;;4.42;87.54
7832;BME280;3961;42.058;25.586;2023-02-04T04:36:43;62722.25;;;4.55;86.81
7832;BME280;3961;42.058;25.586;2023-02-04T04:39:08;62732.91;;;4.62;86.16
7832;BME280;3961;42.058;25.586;2023-02-04T04:41:34;62728.34;;;4.58;87.33
7832;BME280;3961;42.058;25.586;2023-02-04T04:44:00;62720.44;;;4.58;87.45
7832;BME280;3961;42.058;25.586;2023-02-04T04:46:25;62726.03;;;4.56;87.37
7832;BME280;3961;42.058;25.586;2023-02-04T04:48:51;62722.25;;;4.55;89.37
7832;BME280;3961;42.058;25.586;2023-02-04T04:51:17;62718.28;;;4.52;90.04
7832;BME280;3961;42.058;25.586;2023-02-04T04:53:42;62712.78;;;4.49;88.34
7832;BME280;3961;42.058;25.586;2023-02-04T04:56:08;62719.16;;;4.50;87.79
7832;BME280;3961;42.058;25.586;2023-02-04T04:58:33;62725.47;;;4.56;87.58
7832;BME280;3961;42.058;25.586;2023-02-04T05:00:59;62715.41;;;4.49;87.68
7832;BME280;3961;42.058;25.586;2023-02-04T05:03:24;62695.22;;;4.36;88.71
7832;BME280;3961;42.058;25.586;2023-02-04T05:05:49;62711.97;;;4.46;89.06
7832;BME280;3961;42.058;25.586;2023-02-04T05:08:15;62711.28;;;4.50;89.88
7832;BME280;3961;42.058;25.586;2023-02-04T05:10:44;62724.81;;;4.60;88.91
7832;BME280;3961;42.058;25.586;2023-02-04T05:13:09;62740.63;;;4.71;87.60
7832;BME280;3961;42.058;25.586;2023-02-04T05:15:35;62736.84;;;4.70;87.98
7832;BME280;3961;42.058;25.586;2023-02-04T05:18:01;62710.22;;;4.45;88.26
7832;BME280;3961;42.058;25.586;2023-02-04T05:20:27;62733.75;;;4.65;88.49
7832;BME280;3961;42.058;25.586;2023-02-04T05:22:52;62679.28;;;4.17;89.82
7832;BME280;3961;42.058;25.586;2023-02-04T05:25:21;62653.47;;;3.94;91.08
7832;BME280;3961;42.058;25.586;2023-02-04T05:27:47;62634.00;;;3.77;92.58
7832;BME280;3961;42.058;25.586;2023-02-04T05:30:13;62653.81;;;3.92;91.60
7832;BME280;3961;42.058;25.586;2023-02-04T05:32:39;62645.72;;;3.90;92.60
7832;BME280;3961;42.058;25.586;2023-02-04T05:35:05;62616.47;;;3.64;94.98
7832;BME280;3961;42.058;25.586;2023-02-04T05:37:30;62624.59;;;3.66;96.73
7832;BME280;3961;42.058;25.586;2023-02-04T05:39:56;62644.00;;;3.88;95.28
7832;BME280;3961;42.058;25.586;2023-02-04T05:42:22;62641.44;;;3.84;92.53
7832;BME280;3961;42.058;25.586;2023-02-04T05:44:47;62637.13;;;3.82;93.51
7832;BME280;3961;42.058;25.586;2023-02-04T05:47:13;62636.63;;;3.77;94.00
7832;BME280;3961;42.058;25.586;2023-02-04T05:49:39;62635.47;;;3.76;94.54
7832;BME280;3961;42.058;25.586;2023-02-04T05:52:05;62649.47;;;3.91;95.31
7832;BME280;3961;42.058;25.586;2023-02-04T05:54:30;62642.59;;;3.85;96.13
7832;BME280;3961;42.058;25.586;2023-02-04T05:56:56;62682.72;;;4.20;94.67
7832;BME280;3961;42.058;25.586;2023-02-04T05:59:21;62693.03;;;4.29;94.31
7832;BME280;3961;42.058;25.586;2023-02-04T06:01:47;62708.19;;;4.45;93.06
7832;BME280;3961;42.058;25.586;2023-02-04T06:04:12;62724.88;;;4.55;92.61
7832;BME280;3961;42.058;25.586;2023-02-04T06:06:39;62703.59;;;4.41;93.69
7832;BME280;3961;42.058;25.586;2023-02-04T06:09:05;62717.44;;;4.49;93.77
7832;BME280;3961;42.058;25.586;2023-02-04T06:11:30;62702.78;;;4.38;94.67
7832;BME280;3961;42.058;25.586;2023-02-04T06:13:56;62708.44;;;4.48;95.72
7832;BME280;3961;42.058;25.586;2023-02-04T06:16:21;62683.94;;;4.17;96.30
7832;BME280;3961;42.058;25.586;2023-02-04T06:18:47;62642.59;;;3.85;98.25
7832;BME280;3961;42.058;25.586;2023-02-04T06:21:12;62646.25;;;3.90;98.88
7832;BME280;3961;42.058;25.586;2023-02-04T06:23:38;62681.81;;;4.22;98.29
7832;BME280;3961;42.058;25.586;2023-02-04T06:26:03;62704.81;;;4.37;96.04
7832;BME280;3961;42.058;25.586;2023-02-04T06:28:29;62699.34;;;4.35;95.55
7832;BME280;3961;42.058;25.586;2023-02-04T06:30:54;62697.63;;;4.33;95.55
7832;BME280;3961;42.058;25.586;2023-02-04T06:33:20;62686.72;;;4.24;97.37
7832;BME280;3961;42.058;25.586;2023-02-04T06:35:47;62716.88;;;4.48;96.04
7832;BME280;3961;42.058;25.586;2023-02-04T06:38:12;62703.09;;;4.36;96.51
7832;BME280;3961;42.058;25.586;2023-02-04T06:40:38;62715.72;;;4.47;97.44
7832;BME280;3961;42.058;25.586;2023-02-04T06:43:03;62703.03;;;4.41;97.86
7832;BME280;3961;42.058;25.586;2023-02-04T06:45:29;62711.63;;;4.48;96.89
7832;BME280;3961;42.058;25.586;2023-02-04T06:47:54;62734.66;;;4.64;97.12
7832;BME280;3961;42.058;25.586;2023-02-04T06:50:20;62709.66;;;4.44;97.21
7832;BME280;3961;42.058;25.586;2023-02-04T06:52:45;62718.28;;;4.52;96.20
7832;BME280;3961;42.058;25.586;2023-02-04T06:55:15;62720.56;;;4.54;95.35
7832;BME280;3961;42.058;25.586;2023-02-04T06:57:41;62737.19;;;4.68;96.92
7832;BME280;3961;42.058;25.586;2023-02-04T07:00:09;62751.88;;;4.79;96.77
7832;BME280;3961;42.058;25.586;2023-02-04T07:02:35;62766.19;;;4.92;94.46
7832;BME280;3961;42.058;25.586;2023-02-04T07:05:03;62758.31;;;4.92;93.46
7832;BME280;3961;42.058;25.586;2023-02-04T07:07:29;62773.41;;;4.96;94.30
7832;BME280;3961;42.058;25.586;2023-02-04T07:09:54;62776.53;;;5.01;94.57
7832;BME280;3961;42.058;25.586;2023-02-04T07:12:20;62787.69;;;5.13;92.93
7832;BME280;3961;42.058;25.586;2023-02-04T07:14:45;62768.16;;;4.96;94.88
7832;BME280;3961;42.058;25.586;2023-02-04T07:17:10;62790.56;;;5.16;93.84
7832;BME280;3961;42.058;25.586;2023-02-04T07:19:36;62773.91;;;5.01;94.41
7832;BME280;3961;42.058;25.586;2023-02-04T07:22:02;62802.91;;;5.24;93.35
7832;BME280;3961;42.058;25.586;2023-02-04T07:24:28;62800.63;;;5.22;93.65
7832;BME280;3961;42.058;25.586;2023-02-04T07:26:53;62791.69;;;5.17;94.84
7832;BME280;3961;42.058;25.586;2023-02-04T07:29:19;62802.91;;;5.24;94.36
7832;BME280;3961;42.058;25.586;2023-02-04T07:31:45;62777.91;;;5.04;94.63
7832;BME280;3961;42.058;25.586;2023-02-04T07:34:14;62776.19;;;5.03;96.50
7832;BME280;3961;42.058;25.586;2023-02-04T07:36:40;62772.75;;;5.00;96.59
7832;BME280;3961;42.058;25.586;2023-02-04T07:39:06;62773.09;;;4.98;95.58
7832;BME280;3961;42.058;25.586;2023-02-04T07:41:32;62755.88;;;4.83;95.80
7832;BME280;3961;42.058;25.586;2023-02-04T07:43:58;62759.53;;;4.88;95.82
7832;BME280;3961;42.058;25.586;2023-02-04T07:46:23;62767.59;;;4.95;95.80
7832;BME280;3961;42.058;25.586;2023-02-04T07:48:49;62767.91;;;4.93;94.24
7832;BME280;3961;42.058;25.586;2023-02-04T07:51:14;62779.97;;;5.04;93.04
7832;BME280;3961;42.058;25.586;2023-02-04T07:53:40;62794.56;;;5.19;92.16
7832;BME280;3961;42.058;25.586;2023-02-04T07:56:05;62780.78;;;5.07;92.84
7832;BME280;3961;42.058;25.586;2023-02-04T07:58:31;62802.59;;;5.26;91.79
7832;BME280;3961;42.058;25.586;2023-02-04T08:00:56;62827.53;;;5.51;90.82
7832;BME280;3961;42.058;25.586;2023-02-04T08:03:22;62829.59;;;5.50;90.55
7832;BME280;3961;42.058;25.586;2023-02-04T08:05:48;62836.38;;;5.61;93.08
7832;BME280;3961;42.058;25.586;2023-02-04T08:08:13;62840.72;;;5.62;93.29
7832;BME280;3961;42.058;25.586;2023-02-04T08:10:39;62836.13;;;5.58;95.42
7832;BME280;3961;42.058;25.586;2023-02-04T08:13:05;62825.00;;;5.46;94.60
7832;BME280;3961;42.058;25.586;2023-02-04T08:15:30;62862.31;;;5.79;97.50
7832;BME280;3961;42.058;25.586;2023-02-04T08:17:56;62847.94;;;5.66;97.25
7832;BME280;3961;42.058;25.586;2023-02-04T08:20:21;62897.69;;;6.08;97.26
7832;BME280;3961;42.058;25.586;2023-02-04T08:22:47;62900.81;;;6.13;94.32
7832;BME280;3961;42.058;25.586;2023-02-04T08:25:13;62895.88;;;6.11;96.34
7832;BME280;3961;42.058;25.586;2023-02-04T08:27:38;62906.78;;;6.21;94.74
7832;BME280;3961;42.058;25.586;2023-02-04T08:30:04;62887.03;;;6.01;94.51
7832;BME280;3961;42.058;25.586;2023-02-04T08:32:30;62845.06;;;5.64;97.82
7832;BME280;3961;42.058;25.586;2023-02-04T08:34:56;62852.31;;;5.68;96.80
7832;BME280;3961;42.058;25.586;2023-02-04T08:37:22;62812.94;;;5.35;100.00
7832;BME280;3961;42.058;25.586;2023-02-04T08:39:48;62773.31;;;5.00;100.00
7832;BME280;3961;42.058;25.586;2023-02-04T08:42:14;62790.31;;;5.13;100.00
7832;BME280;3961;42.058;25.586;2023-02-04T08:44:40;62799.13;;;5.23;100.00
7832;BME280;3961;42.058;25.586;2023-02-04T08:47:06;62808.41;;;5.27;100.00
7832;BME280;3961;42.058;25.586;2023-02-04T08:49:31;62812.44;;;5.30;100.00
7832;BME280;3961;42.058;25.586;2023-02-04T08:51:57;62818.91;;;5.43;100.00
7832;BME280;3961;42.058;25.586;2023-02-04T08:54:22;62850.00;;;5.66;100.00
7832;BME280;3961;42.058;25.586;2023-02-04T08:56:48;62869.53;;;5.83;99.36
7832;BME280;3961;42.058;25.586;2023-02-04T08:59:13;62897.84;;;6.15;98.32
7832;BME280;3961;42.058;25.586;2023-02-04T09:01:39;62942.19;;;6.50;96.42
7832;BME280;3961;42.058;25.586;2023-02-04T09:04:04;63017.50;;;7.16;92.03
7832;BME280;3961;42.058;25.586;2023-02-04T09:06:29;63018.78;;;7.13;91.28
7832;BME280;3961;42.058;25.586;2023-02-04T09:08:55;63041.09;;;7.37;89.19
7832;BME280;3961;42.058;25.586;2023-02-04T09:11:20;63082.31;;;7.71;88.30
7832;BME280;3961;42.058;25.586;2023-02-04T09:13:46;63162.03;;;8.44;83.49
7832;BME280;3961;42.058;25.586;2023-02-04T09:16:11;63208.22;;;8.80;78.21
7832;BME280;3961;42.058;25.586;2023-02-04T09:18:37;63182.78;;;8.62;80.07
7832;BME280;3961;42.058;25.586;2023-02-04T09:21:02;63186.22;;;8.65;80.95
7832;BME280;3961;42.058;25.586;2023-02-04T09:23:28;63236.13;;;9.06;76.91
7832;BME280;3961;42.058;25.586;2023-02-04T09:25:54;63228.31;;;9.02;74.23
7832;BME280;3961;42.058;25.586;2023-02-04T09:28:19;63295.53;;;9.59;73.20
7832;BME280;3961;42.058;25.586;2023-02-04T09:30:47;63313.97;;;9.75;71.48
7832;BME280;3961;42.058;25.586;2023-02-04T09:33:14;63359.00;;;10.15;69.51
7832;BME280;3961;42.058;25.586;2023-02-04T09:35:40;63383.53;;;10.38;65.33
7832;BME280;3961;42.058;25.586;2023-02-04T09:38:06;63399.44;;;10.50;64.46
7832;BME280;3961;42.058;25.586;2023-02-04T09:40:40;63419.09;;;10.67;62.48
7832;BME280;3961;42.058;25.586;2023-02-04T09:43:10;63438.38;;;10.87;61.77
7832;BME280;3961;42.058;25.586;2023-02-04T09:45:37;63432.59;;;10.82;60.71
7832;BME280;3961;42.058;25.586;2023-02-04T09:48:04;63425.31;;;10.77;63.42
7832;BME280;3961;42.058;25.586;2023-02-04T09:50:30;63405.44;;;10.58;62.27
7832;BME280;3961;42.058;25.586;2023-02-04T09:52:59;63460.09;;;11.03;60.39
7832;BME280;3961;42.058;25.586;2023-02-04T09:55:29;63427.72;;;10.75;59.20
7832;BME280;3961;42.058;25.586;2023-02-04T09:57:56;63409.72;;;10.64;60.60
7832;BME280;3961;42.058;25.586;2023-02-04T10:00:24;63419.31;;;10.70;59.09
7832;BME280;3961;42.058;25.586;2023-02-04T10:02:50;63479.41;;;11.23;57.95
7832;BME280;3961;42.058;25.586;2023-02-04T10:05:23;63475.69;;;11.17;57.56
7832;BME280;3961;42.058;25.586;2023-02-04T10:07:49;63484.59;;;11.27;57.87
7832;BME280;3961;42.058;25.586;2023-02-04T10:10:17;63470.16;;;11.15;58.79
7832;BME280;3961;42.058;25.586;2023-02-04T10:12:44;63412.97;;;10.64;59.02
7832;BME280;3961;42.058;25.586;2023-02-04T10:15:17;63389.63;;;10.41;60.01
7832;BME280;3961;42.058;25.586;2023-02-04T10:17:49;63374.28;;;10.30;60.72
7832;BME280;3961;42.058;25.586;2023-02-04T10:20:20;63366.78;;;10.24;61.89
7832;BME280;3961;42.058;25.586;2023-02-04T10:22:48;63365.94;;;10.21;59.78
7832;BME280;3961;42.058;25.586;2023-02-04T10:25:17;63390.78;;;10.42;59.19
7832;BME280;3961;42.058;25.586;2023-02-04T10:27:51;63341.00;;;10.03;59.36
7832;BME280;3961;42.058;25.586;2023-02-04T10:30:22;63402.31;;;10.53;59.53
7832;BME280;3961;42.058;25.586;2023-02-04T10:32:48;63436.75;;;10.81;59.30
7832;BME280;3961;42.058;25.586;2023-02-04T10:35:16;63431.44;;;10.81;58.63
7832;BME280;3961;42.058;25.586;2023-02-04T10:37:42;63441.84;;;10.90;58.72
7832;BME280;3961;42.058;25.586;2023-02-04T10:40:29;63434.56;;;10.86;57.88
7832;BME280;3961;42.058;25.586;2023-02-04T10:42:55;63413.19;;;10.67;58.54
7832;BME280;3961;42.058;25.586;2023-02-04T10:45:25;63388.69;;;10.43;58.59
7832;BME280;3961;42.058;25.586;2023-02-04T10:47:53;63378.31;;;10.34;59.70
7832;BME280;3961;42.058;25.586;2023-02-04T10:50:26;63391.34;;;10.43;58.69
7832;BME280;3961;42.058;25.586;2023-02-04T10:52:58;63360.97;;;10.19;58.32
7832;BME280;3961;42.058;25.586;2023-02-04T10:55:44;63334.91;;;10.00;59.89
7832;BME280;3961;42.058;25.586;2023-02-04T10:58:14;63353.34;;;10.05;59.84
7832;BME280;3961;42.058;25.586;2023-02-04T11:00:41;63327.50;;;9.89;61.20
7832;BME280;3961;42.058;25.586;2023-02-04T11:03:11;63337.91;;;9.98;60.42
7832;BME280;3961;42.058;25.586;2023-02-04T11:05:39;63343.66;;;10.03;60.84
7832;BME280;3961;42.058;25.586;2023-02-04T11:08:24;63363.31;;;10.21;59.59
7832;BME280;3961;42.058;25.586;2023-02-04T11:11:03;63392.75;;;10.47;58.20
7832;BME280;3961;42.058;25.586;2023-02-04T11:13:40;63406.94;;;10.57;58.90
7832;BME280;3961;42.058;25.586;2023-02-04T11:21:41;63378.91;;;10.34;53.09
7832;BME280;3961;42.058;25.586;2023-02-04T11:27:06;63403.72;;;10.56;52.62
7832;BME280;3961;42.058;25.586;2023-02-04T11:29:34;63438.94;;;10.87;51.77
7832;BME280;3961;42.058;25.586;2023-02-04T11:32:32;63458.59;;;11.04;52.55
7832;BME280;3961;42.058;25.586;2023-02-04T11:37:41;63462.97;;;11.06;51.64
7832;BME280;3961;42.058;25.586;2023-02-04T11:40:29;63485.41;;;11.30;50.09
7832;BME280;3961;42.058;25.586;2023-02-04T11:42:56;63526.22;;;11.64;49.00
7832;BME280;3961;42.058;25.586;2023-02-04T11:45:27;63534.88;;;11.71;49.41
7832;BME280;3961;42.058;25.586;2023-02-04T11:47:56;63507.81;;;11.43;48.99
7832;BME280;3961;42.058;25.586;2023-02-04T11:50:26;63505.41;;;11.45;48.35
7832;BME280;3961;42.058;25.586;2023-02-04T11:52:53;63515.00;;;11.52;49.05
7832;BME280;3961;42.058;25.586;2023-02-04T11:55:19;63540.09;;;11.76;49.06
7832;BME280;3961;42.058;25.586;2023-02-04T11:57:50;63542.50;;;11.73;48.38
7832;BME280;3961;42.058;25.586;2023-02-04T12:00:29;63531.44;;;11.68;48.13
7832;BME280;3961;42.058;25.586;2023-02-04T12:03:00;63547.97;;;11.81;48.77
7832;BME280;3961;42.058;25.586;2023-02-04T12:05:41;63538.59;;;11.77;49.11
7832;BME280;3961;42.058;25.586;2023-02-04T12:08:34;63482.88;;;11.26;49.50
7832;BME280;3961;42.058;25.586;2023-02-04T12:11:04;63543.66;;;11.74;49.65
7832;BME280;3961;42.058;25.586;2023-02-04T12:13:31;63533.97;;;11.73;49.05
7832;BME280;3961;42.058;25.586;2023-02-04T12:16:06;63506.09;;;11.41;48.82
7832;BME280;3961;42.058;25.586;2023-02-04T12:18:33;63523.00;;;11.63;49.60
7832;BME280;3961;42.058;25.586;2023-02-04T12:20:59;63530.63;;;11.65;49.33
7832;BME280;3961;42.058;25.586;2023-02-04T12:23:27;63534.31;;;11.71;49.21
7832;BME280;3961;42.058;25.586;2023-02-04T12:25:52;63543.34;;;11.76;48.64
7832;BME280;3961;42.058;25.586;2023-02-04T12:28:18;63564.75;;;11.95;47.78
7832;BME280;3961;42.058;25.586;2023-02-04T12:30:43;63494.78;;;11.34;48.76
7832;BME280;3961;42.058;25.586;2023-02-04T12:33:09;63546.47;;;11.82;48.04
7832;BME280;3961;42.058;25.586;2023-02-04T12:35:35;63545.09;;;11.78;48.08
7832;BME280;3961;42.058;25.586;2023-02-04T12:38:00;63557.13;;;11.93;49.32
7832;BME280;3961;42.058;25.586;2023-02-04T12:40:26;63560.38;;;11.94;49.50
7832;BME280;3961;42.058;25.586;2023-02-04T12:42:51;63576.31;;;12.05;49.38
7832;BME280;3961;42.058;25.586;2023-02-04T12:45:18;63585.22;;;12.16;48.98
7832;BME280;3961;42.058;25.586;2023-02-04T12:47:43;63603.88;;;12.27;48.23
7832;BME280;3961;42.058;25.586;2023-02-04T12:50:11;63589.03;;;12.17;48.02
7832;BME280;3961;42.058;25.586;2023-02-04T12:52:37;63574.81;;;12.06;47.98
7832;BME280;3961;42.058;25.586;2023-02-04T12:55:05;63565.00;;;11.98;47.44
7832;BME280;3961;42.058;25.586;2023-02-04T12:57:31;63574.22;;;12.06;47.76
7832;BME280;3961;42.058;25.586;2023-02-04T12:59:57;63568.69;;;12.03;49.17
7832;BME280;3961;42.058;25.586;2023-02-04T13:02:24;63574.00;;;12.03;47.99
7832;BME280;3961;42.058;25.586;2023-02-04T13:04:51;63532.22;;;11.71;48.29
7832;BME280;3961;42.058;25.586;2023-02-04T13:07:17;63532.34;;;11.67;48.71
7832;BME280;3961;42.058;25.586;2023-02-04T13:09:42;63509.44;;;11.49;48.65
7832;BME280;3961;42.058;25.586;2023-02-04T13:12:10;63498.47;;;11.39;48.17
7832;BME280;3961;42.058;25.586;2023-02-04T13:14:38;63516.16;;;11.53;48.72
7832;BME280;3961;42.058;25.586;2023-02-04T13:17:05;63538.13;;;11.72;48.49
7832;BME280;3961;42.058;25.586;2023-02-04T13:19:30;63533.50;;;11.68;47.15
7832;BME280;3961;42.058;25.586;2023-02-04T13:21:57;63548.22;;;11.83;48.30
7832;BME280;3961;42.058;25.586;2023-02-04T13:24:23;63611.72;;;12.32;47.79
7832;BME280;3961;42.058;25.586;2023-02-04T13:26:49;63620.28;;;12.44;48.48